Time;durP1;ratioP1;P1;durP2;ratioP2;P2;SDS_P1;SDS_P2;PMS_P1;PMS_P2;Temp;Humidity;BMP_temperature;BMP_pressure;BME280_temperature;BME280_humidity;BME280_pressure;Samples;Min_cycle;Max_cycle;Signal;HPM_P1;HPM_P2
2022/06/28 00:00:05;;;;;;;15.18;12.35;;;17.10;99.90;;;;;;4986986;28;20205;-69
2022/06/28 00:02:32;;;;;;;17.48;12.20;;;17.10;99.90;;;;;;4994107;28;20201;-69
2022/06/28 00:05:01;;;;;;;14.38;11.30;;;17.20;99.90;;;;;;4993274;28;20224;-69
2022/06/28 00:07:28;;;;;;;13.25;10.27;;;17.20;99.90;;;;;;4994420;28;20205;-69
2022/06/28 00:09:54;;;;;;;14.52;10.43;;;17.10;99.90;;;;;;4993878;28;20227;-69
2022/06/28 00:12:22;;;;;;;13.73;9.95;;;17.10;99.90;;;;;;4993730;28;20202;-69
2022/06/28 00:17:33;;;;;;;13.77;8.60;;;17.00;99.90;;;;;;4994172;28;20620;-69
2022/06/28 00:20:02;;;;;;;11.38;8.65;;;17.20;99.90;;;;;;4993099;28;20540;-69
2022/06/28 00:22:28;;;;;;;12.23;8.52;;;17.10;99.90;;;;;;4993292;28;20208;-69
2022/06/28 00:24:55;;;;;;;10.43;8.30;;;17.10;99.90;;;;;;4994112;28;20247;-69
2022/06/28 00:27:22;;;;;;;8.88;7.60;;;17.20;99.90;;;;;;4993921;28;20205;-69
2022/06/28 00:29:49;;;;;;;10.73;7.38;;;17.20;99.90;;;;;;4993535;28;20216;-68
2022/06/28 00:32:16;;;;;;;9.90;7.93;;;17.20;99.90;;;;;;4993863;28;20205;-68
2022/06/28 00:34:42;;;;;;;11.68;8.88;;;17.20;99.90;;;;;;4993617;28;20216;-68
2022/06/28 00:37:11;;;;;;;10.63;8.35;;;17.10;99.90;;;;;;4993958;28;20676;-68
2022/06/28 00:39:37;;;;;;;11.85;8.63;;;17.10;99.90;;;;;;4993497;28;20562;-68
2022/06/28 00:42:05;;;;;;;9.68;7.45;;;17.20;99.90;;;;;;4993560;28;20213;-68
2022/06/28 00:44:32;;;;;;;9.95;7.80;;;17.20;99.90;;;;;;4992395;28;20212;-68
2022/06/28 00:47:00;;;;;;;11.70;7.78;;;17.10;99.90;;;;;;4993380;28;20220;-68
2022/06/28 00:49:27;;;;;;;10.30;7.63;;;17.20;99.90;;;;;;4992946;28;20208;-68
2022/06/28 00:51:56;;;;;;;8.65;7.60;;;17.20;99.90;;;;;;4992969;28;20207;-68
2022/06/28 00:54:25;;;;;;;10.10;8.02;;;17.10;99.90;;;;;;4993615;28;20213;-68
2022/06/28 00:56:52;;;;;;;10.88;7.72;;;17.00;99.90;;;;;;4993261;28;20197;-68
2022/06/28 00:59:19;;;;;;;11.68;8.40;;;17.10;99.90;;;;;;4991688;28;20211;-68
2022/06/28 01:01:46;;;;;;;12.20;8.10;;;17.10;99.90;;;;;;4993169;28;20565;-68
2022/06/28 01:04:12;;;;;;;8.20;7.40;;;17.10;99.90;;;;;;4992499;28;20577;-68
2022/06/28 01:06:40;;;;;;;8.65;7.15;;;17.10;99.90;;;;;;4993004;28;20240;-68
2022/06/28 01:09:07;;;;;;;9.98;8.13;;;17.10;99.90;;;;;;4992739;28;20205;-68
2022/06/28 01:11:35;;;;;;;10.10;8.18;;;17.00;99.90;;;;;;4992839;28;20539;-68
2022/06/28 01:14:06;;;;;;;10.45;7.78;;;17.00;99.90;;;;;;4988594;28;20201;-68
2022/06/28 01:16:34;;;;;;;9.55;7.40;;;16.90;99.90;;;;;;4987213;28;20288;-68
2022/06/28 01:19:01;;;;;;;9.85;7.75;;;17.00;99.90;;;;;;4989794;28;20205;-68
2022/06/28 01:21:30;;;;;;;9.40;6.95;;;16.90;99.90;;;;;;4987921;28;20209;-68
2022/06/28 01:23:58;;;;;;;14.15;7.97;;;16.90;99.90;;;;;;4993183;28;20201;-68
2022/06/28 01:26:26;;;;;;;9.45;6.82;;;16.80;99.90;;;;;;4993007;28;20439;-68
2022/06/28 01:28:53;;;;;;;11.48;7.50;;;16.80;99.90;;;;;;4992984;28;20613;-68
2022/06/28 01:31:22;;;;;;;9.40;7.22;;;16.80;99.90;;;;;;4992235;28;20203;-68
2022/06/28 01:33:51;;;;;;;10.07;7.13;;;16.80;99.90;;;;;;4992948;28;20212;-68
2022/06/28 01:36:17;;;;;;;11.07;7.15;;;16.90;99.90;;;;;;4992743;28;20232;-68
2022/06/28 01:38:45;;;;;;;10.25;7.03;;;16.70;99.90;;;;;;4992778;28;20675;-68
2022/06/28 01:41:32;;;;;;;7.50;6.60;;;16.80;99.90;;;;;;4991853;28;20220;-68
2022/06/28 01:44:00;;;;;;;8.05;6.70;;;16.80;99.90;;;;;;4992468;28;20232;-68
2022/06/28 01:46:27;;;;;;;10.55;7.40;;;16.70;99.90;;;;;;4992356;28;20229;-68
2022/06/28 01:48:55;;;;;;;9.27;6.70;;;16.70;99.90;;;;;;4992771;28;20205;-68
2022/06/28 01:51:22;;;;;;;8.27;6.85;;;16.60;99.90;;;;;;4988416;28;20201;-68
2022/06/28 01:53:49;;;;;;;9.85;6.85;;;16.60;99.90;;;;;;4991314;28;20200;-68
2022/06/28 01:56:17;;;;;;;8.90;6.60;;;16.60;99.90;;;;;;4993184;28;20216;-68
2022/06/28 01:58:44;;;;;;;10.63;6.43;;;16.50;99.90;;;;;;4991693;28;20682;-68
2022/06/28 02:01:11;;;;;;;7.75;5.53;;;16.40;99.90;;;;;;4972799;28;20572;-68
2022/06/28 02:03:38;;;;;;;7.95;6.43;;;16.40;99.90;;;;;;4982391;28;20212;-68
2022/06/28 02:06:05;;;;;;;8.15;6.38;;;16.20;99.90;;;;;;4992153;28;20247;-68
2022/06/28 02:08:34;;;;;;;7.28;6.13;;;16.20;99.90;;;;;;4992242;28;20209;-68
2022/06/28 02:11:01;;;;;;;10.80;6.38;;;16.00;99.90;;;;;;4991822;28;20215;-68
2022/06/28 02:13:30;;;;;;;8.33;6.07;;;15.90;99.90;;;;;;4992449;28;20201;-68
2022/06/28 02:15:56;;;;;;;8.70;6.00;;;15.70;99.90;;;;;;4992601;28;20207;-68
2022/06/28 02:18:23;;;;;;;8.55;5.45;;;15.60;99.90;;;;;;4991921;28;20209;-68
2022/06/28 02:20:50;;;;;;;9.35;6.50;;;15.60;99.90;;;;;;4986191;28;20211;-68
2022/06/28 02:23:17;;;;;;;7.15;5.10;;;15.60;99.90;;;;;;4981278;28;20205;-68
2022/06/28 02:25:44;;;;;;;6.55;5.18;;;15.70;99.90;;;;;;4990857;28;20224;-68
2022/06/28 02:28:11;;;;;;;7.88;5.90;;;15.60;99.90;;;;;;4992217;28;20221;-68
2022/06/28 02:30:39;;;;;;;7.50;5.43;;;15.60;99.90;;;;;;4991873;28;20212;-68
2022/06/28 02:33:06;;;;;;;8.37;5.87;;;15.50;99.90;;;;;;4991964;28;20205;-68
2022/06/28 02:41:01;;;;;;;8.80;5.70;;;15.30;99.90;;;;;;4991472;28;20220;-68
2022/06/28 02:43:29;;;;;;;9.03;5.70;;;15.30;99.90;;;;;;4991526;28;20221;-68
2022/06/28 02:45:57;;;;;;;6.00;5.20;;;15.30;99.90;;;;;;4991575;28;20232;-68
2022/06/28 02:48:24;;;;;;;9.30;5.67;;;15.30;99.90;;;;;;4991529;28;20224;-68
2022/06/28 02:50:51;;;;;;;7.00;5.43;;;15.40;99.90;;;;;;4990535;28;20244;-68
2022/06/28 02:53:17;;;;;;;10.30;5.60;;;15.30;99.90;;;;;;4985586;28;20209;-68
2022/06/28 02:55:44;;;;;;;8.47;5.70;;;15.30;99.90;;;;;;4990428;28;20196;-68
2022/06/28 02:58:11;;;;;;;8.87;6.30;;;15.30;99.90;;;;;;4992140;28;20628;-68
2022/06/28 03:00:38;;;;;;;7.03;5.40;;;15.20;99.90;;;;;;4990901;28;20212;-67
2022/06/28 03:03:06;;;;;;;8.03;5.47;;;15.20;99.90;;;;;;4992012;28;20201;-68
2022/06/28 03:05:35;;;;;;;7.67;5.07;;;15.10;99.90;;;;;;4990565;28;20205;-68
2022/06/28 03:08:02;;;;;;;8.47;5.30;;;15.20;99.90;;;;;;4984483;28;20206;-68
2022/06/28 03:10:29;;;;;;;6.93;5.50;;;15.10;99.90;;;;;;4990843;28;20201;-67
2022/06/28 03:12:55;;;;;;;7.03;5.87;;;15.00;99.90;;;;;;4989149;28;20201;-67
2022/06/28 03:15:22;;;;;;;8.90;5.57;;;15.10;99.90;;;;;;4990114;28;20216;-68
2022/06/28 03:17:49;;;;;;;6.10;5.20;;;15.00;99.90;;;;;;4992072;28;20201;-68
2022/06/28 03:20:17;;;;;;;7.53;5.67;;;15.00;99.90;;;;;;4986757;28;20208;-68
2022/06/28 03:22:44;;;;;;;6.67;5.83;;;15.00;99.90;;;;;;4994308;28;20628;-68
2022/06/28 03:25:11;;;;;;;8.13;6.00;;;14.90;99.90;;;;;;4995240;28;20216;-68
2022/06/28 03:27:38;;;;;;;9.10;6.30;;;14.90;99.90;;;;;;4994951;28;20699;-68
2022/06/28 03:30:06;;;;;;;7.33;6.07;;;14.80;99.90;;;;;;4994289;28;20679;-68
2022/06/28 03:32:33;;;;;;;11.33;8.93;;;14.80;99.90;;;;;;4994200;28;20213;-68
2022/06/28 03:35:00;;;;;;;9.57;6.67;;;14.80;99.90;;;;;;4994394;28;20554;-68
2022/06/28 03:37:28;;;;;;;8.00;6.50;;;14.90;99.90;;;;;;4994342;28;20216;-66
2022/06/28 03:39:55;;;;;;;7.37;6.10;;;14.90;99.90;;;;;;4993689;28;20219;-66
2022/06/28 03:42:23;;;;;;;7.77;6.27;;;14.90;99.90;;;;;;4994001;28;20220;-66
2022/06/28 03:44:49;;;;;;;6.90;5.93;;;14.90;99.90;;;;;;4993629;28;20255;-66
2022/06/28 03:47:16;;;;;;;7.97;6.37;;;14.80;99.90;;;;;;4994095;28;20228;-66
2022/06/28 03:49:43;;;;;;;10.23;7.17;;;14.90;99.90;;;;;;4994677;28;20215;-66
2022/06/28 03:52:10;;;;;;;7.67;6.57;;;14.90;99.90;;;;;;4994576;28;20248;-66
2022/06/28 03:54:38;;;;;;;13.43;8.20;;;14.80;99.90;;;;;;4993812;28;20208;-66
2022/06/28 03:57:06;;;;;;;10.37;7.50;;;14.80;99.90;;;;;;4994559;28;20212;-66
2022/06/28 03:59:33;;;;;;;12.27;7.83;;;14.90;99.90;;;;;;4993370;28;20205;-65
2022/06/28 04:01:59;;;;;;;11.70;8.23;;;14.80;99.90;;;;;;4974901;28;20213;-66
2022/06/28 04:04:26;;;;;;;10.27;8.47;;;14.90;99.90;;;;;;4981448;28;20208;-65
2022/06/28 04:06:53;;;;;;;11.63;7.83;;;14.90;99.90;;;;;;4990421;28;20244;-66
2022/06/28 04:09:20;;;;;;;10.97;8.03;;;14.80;99.90;;;;;;4992889;28;20211;-66
2022/06/28 04:11:48;;;;;;;12.87;8.90;;;14.90;99.90;;;;;;4993917;28;20204;-66
2022/06/28 04:14:15;;;;;;;11.50;8.43;;;14.90;99.90;;;;;;4993472;28;20263;-65
2022/06/28 04:16:42;;;;;;;11.97;8.00;;;14.80;99.90;;;;;;4993532;28;20217;-65
2022/06/28 04:19:10;;;;;;;13.40;9.17;;;15.00;99.90;;;;;;4992682;28;20213;-66
2022/06/28 04:21:36;;;;;;;11.23;8.60;;;14.90;99.90;;;;;;4992932;28;20205;-66
2022/06/28 04:24:04;;;;;;;10.87;7.97;;;16.60;99.90;;;;;;4994235;28;20208;-66
2022/06/28 04:26:30;;;;;;;10.23;8.13;;;16.30;99.90;;;;;;4993694;28;20244;-66
2022/06/28 04:28:59;;;;;;;11.60;8.00;;;16.10;99.90;;;;;;4992786;28;20209;-66
2022/06/28 04:31:25;;;;;;;9.70;7.40;;;16.00;99.90;;;;;;4992795;28;20209;-66
2022/06/28 04:33:52;;;;;;;9.07;7.80;;;15.70;99.90;;;;;;4993774;28;20216;-66
2022/06/28 04:36:19;;;;;;;9.83;8.00;;;15.60;99.90;;;;;;4994022;28;20224;-66
2022/06/28 04:38:46;;;;;;;12.10;8.60;;;15.40;99.90;;;;;;4993084;28;20692;-66
2022/06/28 04:41:13;;;;;;;12.27;8.73;;;15.80;99.90;;;;;;4988002;28;20215;-66
2022/06/28 04:43:39;;;;;;;10.93;8.30;;;16.00;99.90;;;;;;4974200;28;20220;-66
2022/06/28 04:46:07;;;;;;;9.90;8.67;;;15.50;99.90;;;;;;4980488;28;20213;-66
2022/06/28 04:48:34;;;;;;;17.63;9.73;;;15.40;99.90;;;;;;4993997;28;20199;-66
2022/06/28 04:51:10;;;;;;;13.50;9.83;;;15.50;99.90;;;;;;4992580;28;20236;-66
2022/06/28 04:53:38;;;;;;;12.60;9.40;;;15.30;99.90;;;;;;4992918;28;20572;-66
2022/06/28 04:56:05;;;;;;;15.63;9.97;;;15.40;99.90;;;;;;4992712;28;20213;-65
2022/06/28 04:58:32;;;;;;;10.83;9.17;;;15.20;99.90;;;;;;4993164;28;20267;-66
2022/06/28 05:00:59;;;;;;;12.10;9.53;;;15.40;99.90;;;;;;4992210;28;20572;-66
2022/06/28 05:03:27;;;;;;;14.07;10.97;;;15.50;99.90;;;;;;4993339;28;20213;-66
2022/06/28 05:05:54;;;;;;;13.87;10.63;;;15.50;99.90;;;;;;4993374;28;20205;-66
2022/06/28 05:08:21;;;;;;;14.37;11.03;;;15.60;99.90;;;;;;4991884;28;20251;-66
2022/06/28 05:10:48;;;;;;;13.53;10.50;;;15.70;99.90;;;;;;4992560;28;20205;-66
2022/06/28 05:13:15;;;;;;;12.57;9.83;;;16.10;99.90;;;;;;4993358;28;20573;-66
2022/06/28 05:15:42;;;;;;;13.77;10.33;;;16.60;99.90;;;;;;4992466;28;20217;-66
2022/06/28 05:18:09;;;;;;;16.30;10.87;;;16.60;99.90;;;;;;4992100;28;20325;-66
2022/06/28 05:20:37;;;;;;;13.93;9.90;;;17.00;99.90;;;;;;4984626;28;20205;-66
2022/06/28 05:23:04;;;;;;;15.60;10.83;;;16.80;99.90;;;;;;4984157;28;20640;-66
2022/06/28 05:25:30;;;;;;;13.40;10.30;;;16.70;99.90;;;;;;4992013;28;20212;-66
2022/06/28 05:27:57;;;;;;;13.85;10.05;;;16.70;99.90;;;;;;4992790;28;20225;-66
2022/06/28 05:30:24;;;;;;;13.30;9.50;;;18.10;99.90;;;;;;4992132;28;20684;-66
2022/06/28 05:32:51;;;;;;;12.63;9.98;;;17.90;99.90;;;;;;4992581;28;20651;-66
2022/06/28 05:35:17;;;;;;;12.70;9.48;;;17.30;99.90;;;;;;4992976;28;20561;-66
2022/06/28 05:37:46;;;;;;;14.52;10.25;;;17.10;99.90;;;;;;4992864;28;20478;-66
2022/06/28 05:40:13;;;;;;;14.23;10.30;;;17.10;99.90;;;;;;4991567;28;20246;-66
2022/06/28 05:42:40;;;;;;;11.55;9.15;;;17.60;99.90;;;;;;4992751;28;20216;-65
2022/06/28 05:45:08;;;;;;;12.15;9.35;;;17.70;99.90;;;;;;4992332;28;20209;-66
2022/06/28 05:47:35;;;;;;;13.77;9.27;;;19.30;99.90;;;;;;4992553;28;20240;-66
2022/06/28 05:50:01;;;;;;;13.38;9.05;;;19.70;99.90;;;;;;4991974;28;20574;-66
2022/06/28 05:52:28;;;;;;;13.60;9.50;;;18.60;99.90;;;;;;4993161;28;20215;-66
2022/06/28 05:54:56;;;;;;;10.07;8.98;;;17.90;99.90;;;;;;4991744;28;20212;-66
2022/06/28 05:57:23;;;;;;;10.82;8.60;;;17.90;99.90;;;;;;4991914;28;20212;-66
2022/06/28 05:59:50;;;;;;;12.40;9.00;;;18.80;99.90;;;;;;4991427;28;20204;-66
2022/06/28 06:02:17;;;;;;;11.70;8.65;;;18.00;99.90;;;;;;4991525;28;20205;-66
2022/06/28 06:04:44;;;;;;;13.23;8.52;;;17.50;99.90;;;;;;4984299;28;20205;-66
2022/06/28 06:07:10;;;;;;;10.73;7.55;;;17.40;99.90;;;;;;4987523;28;20570;-66
2022/06/28 06:09:41;;;;;;;10.82;8.10;;;17.60;99.90;;;;;;4987452;28;20215;-66
2022/06/28 06:12:09;;;;;;;11.10;8.38;;;17.80;99.90;;;;;;4992489;28;20217;-66
2022/06/28 06:14:36;;;;;;;12.52;7.88;;;17.40;99.90;;;;;;4992823;28;20346;-66
2022/06/28 06:17:03;;;;;;;13.50;8.10;;;17.80;99.90;;;;;;4991766;28;20232;-66
2022/06/28 06:19:30;;;;;;;13.13;8.23;;;17.70;99.90;;;;;;4992064;28;20204;-66
2022/06/28 06:21:57;;;;;;;12.15;8.20;;;18.00;99.90;;;;;;4992314;28;20219;-66
2022/06/28 06:24:24;;;;;;;10.85;8.23;;;17.80;99.90;;;;;;4992425;28;20271;-66
2022/06/28 06:26:50;;;;;;;11.57;8.35;;;17.50;99.90;;;;;;4991731;28;20251;-66
2022/06/28 06:29:19;;;;;;;10.52;7.18;;;17.70;99.90;;;;;;4991264;28;20219;-66
2022/06/28 06:31:45;;;;;;;13.55;7.93;;;17.90;99.90;;;;;;4991611;28;20216;-66
2022/06/28 06:34:13;;;;;;;12.85;7.90;;;17.70;99.90;;;;;;4991934;28;20216;-66
2022/06/28 06:36:40;;;;;;;10.30;6.88;;;17.50;99.90;;;;;;4992072;28;20316;-66
2022/06/28 06:39:07;;;;;;;9.95;8.07;;;17.50;99.90;;;;;;4991541;28;20299;-66
2022/06/28 06:41:34;;;;;;;10.00;7.90;;;17.50;99.90;;;;;;4991657;28;20223;-66
2022/06/28 06:44:02;;;;;;;13.68;7.80;;;17.70;99.90;;;;;;4991857;28;20201;-66
2022/06/28 06:46:30;;;;;;;8.50;7.00;;;17.40;99.90;;;;;;4981126;28;20206;-66
2022/06/28 06:48:57;;;;;;;10.25;6.65;;;17.70;99.90;;;;;;4982882;28;20609;-66
2022/06/28 06:51:24;;;;;;;7.05;5.40;;;17.70;99.90;;;;;;4987344;28;20271;-66
2022/06/28 06:53:51;;;;;;;7.00;6.07;;;17.90;99.90;;;;;;4994818;28;20498;-66
2022/06/28 06:56:18;;;;;;;10.18;4.63;;;17.70;99.90;;;;;;4996006;28;20212;-66
2022/06/28 06:58:45;;;;;;;9.02;4.30;;;17.70;99.90;;;;;;4995882;28;20201;-66
2022/06/28 07:01:12;;;;;;;9.13;4.80;;;17.80;99.90;;;;;;4995010;28;20232;-66
2022/06/28 07:03:44;;;;;;;6.72;4.57;;;17.80;99.90;;;;;;4995623;28;20571;-66
2022/06/28 07:06:12;;;;;;;5.85;4.18;;;18.00;99.90;;;;;;4995082;28;20259;-66
2022/06/28 07:08:39;;;;;;;5.20;3.25;;;18.00;99.90;;;;;;4995606;28;20233;-66
2022/06/28 07:11:06;;;;;;;6.88;3.20;;;17.90;99.90;;;;;;4994076;28;20204;-66
2022/06/28 07:13:33;;;;;;;6.20;2.78;;;18.10;99.90;;;;;;4991454;28;20416;-66
2022/06/28 07:16:01;;;;;;;4.97;2.78;;;18.10;99.90;;;;;;4989200;28;20205;-66
2022/06/28 07:18:29;;;;;;;3.67;2.38;;;18.40;99.90;;;;;;4992123;28;20661;-66
2022/06/28 07:20:57;;;;;;;8.82;2.85;;;18.20;99.90;;;;;;4994199;28;20247;-66
2022/06/28 07:23:24;;;;;;;5.43;2.60;;;18.40;99.90;;;;;;4989413;28;20656;-66
2022/06/28 07:25:51;;;;;;;8.18;2.97;;;18.30;99.90;;;;;;4992188;28;20212;-66
2022/06/28 07:28:18;;;;;;;4.10;2.50;;;18.40;99.90;;;;;;4988935;28;20585;-66
2022/06/28 07:30:46;;;;;;;5.78;2.75;;;18.30;99.90;;;;;;4990931;28;20212;-66
2022/06/28 07:33:13;;;;;;;4.47;2.35;;;18.40;99.90;;;;;;4975978;28;20657;-66
2022/06/28 07:35:40;;;;;;;5.88;2.42;;;18.50;99.90;;;;;;4994301;28;20209;-66
2022/06/28 07:38:08;;;;;;;4.22;2.10;;;18.60;99.90;;;;;;4994066;28;20664;-66
2022/06/28 07:40:35;;;;;;;2.70;2.13;;;18.60;99.80;;;;;;4994244;28;20570;-66
2022/06/28 07:43:02;;;;;;;3.05;1.48;;;18.80;99.10;;;;;;4993780;28;20205;-66
2022/06/28 07:45:29;;;;;;;5.45;2.05;;;19.10;96.80;;;;;;4994073;28;20205;-66
2022/06/28 07:47:56;;;;;;;4.55;1.80;;;19.00;95.70;;;;;;4994058;28;20228;-66
2022/06/28 07:53:09;;;;;;;3.97;2.13;;;18.80;91.60;;;;;;4994828;28;20207;-66
2022/06/28 07:55:35;;;;;;;4.40;1.73;;;19.00;91.30;;;;;;4993749;28;20217;-66
2022/06/28 07:58:02;;;;;;;4.97;2.17;;;19.20;88.00;;;;;;4994251;28;20209;-66
2022/06/28 08:00:29;;;;;;;3.10;1.90;;;19.10;85.00;;;;;;4993477;28;20213;-66
2022/06/28 08:02:56;;;;;;;4.13;1.80;;;19.20;83.70;;;;;;4993446;28;20213;-66
2022/06/28 08:05:23;;;;;;;3.00;1.75;;;19.30;84.30;;;;;;4994543;28;20215;-66
2022/06/28 08:07:50;;;;;;;4.35;1.60;;;19.20;87.40;;;;;;4994239;28;20675;-66
2022/06/28 08:10:18;;;;;;;5.07;2.00;;;19.50;85.60;;;;;;4992339;28;20201;-66
2022/06/28 08:12:46;;;;;;;3.95;1.75;;;19.40;85.50;;;;;;4993563;28;20944;-66
2022/06/28 08:15:13;;;;;;;5.47;2.15;;;19.20;82.10;;;;;;4986080;28;20212;-66
2022/06/28 08:17:40;;;;;;;5.38;1.70;;;19.20;82.00;;;;;;4994009;28;20658;-66
2022/06/28 08:20:08;;;;;;;4.57;1.65;;;19.40;86.60;;;;;;4993344;28;20212;-66
2022/06/28 08:22:36;;;;;;;2.92;1.55;;;19.60;82.30;;;;;;4993940;28;20216;-66
2022/06/28 08:25:03;;;;;;;1.92;1.52;;;19.50;79.20;;;;;;4993823;28;20208;-66
2022/06/28 08:27:31;;;;;;;4.15;1.60;;;19.60;76.00;;;;;;4993545;28;20232;-66
2022/06/28 08:29:58;;;;;;;3.17;1.88;;;19.60;74.50;;;;;;4993389;28;20217;-66
2022/06/28 08:32:25;;;;;;;3.85;2.25;;;19.80;72.00;;;;;;4993453;28;20223;-66
2022/06/28 08:34:52;;;;;;;4.22;2.17;;;19.80;69.40;;;;;;4993235;28;20201;-66
2022/06/28 08:37:19;;;;;;;4.68;2.13;;;19.80;69.90;;;;;;4993710;28;20225;-66
2022/06/28 08:39:47;;;;;;;4.15;2.10;;;19.80;68.00;;;;;;4993043;28;20568;-66
2022/06/28 08:42:20;;;;;;;4.15;2.03;;;19.70;70.40;;;;;;4993479;28;20213;-66
2022/06/28 08:44:49;;;;;;;5.18;2.47;;;19.80;69.70;;;;;;4993271;28;20675;-66
2022/06/28 08:47:20;;;;;;;5.35;2.25;;;20.30;66.60;;;;;;4993657;28;20283;-66
2022/06/28 08:49:53;;;;;;;4.25;1.90;;;20.20;66.70;;;;;;4993164;28;20205;-66
2022/06/28 08:52:23;;;;;;;4.80;1.77;;;20.40;62.80;;;;;;4975618;28;20350;-66
2022/06/28 08:54:51;;;;;;;5.30;1.88;;;20.90;63.90;;;;;;4993221;28;20223;-66
2022/06/28 08:57:20;;;;;;;2.22;1.70;;;21.10;66.40;;;;;;4988316;28;20209;-66
2022/06/28 08:59:49;;;;;;;4.68;2.00;;;21.50;58.60;;;;;;4990088;28;20567;-67
2022/06/28 09:02:16;;;;;;;3.13;2.10;;;22.00;57.30;;;;;;4988206;28;20672;-66
2022/06/28 09:04:48;;;;;;;4.50;1.73;;;22.00;52.90;;;;;;4990135;28;20912;-66
2022/06/28 09:07:15;;;;;;;3.28;1.85;;;21.70;55.20;;;;;;4992826;28;20604;-66
2022/06/28 09:09:42;;;;;;;6.07;2.10;;;22.20;55.60;;;;;;4988455;28;20224;-66
2022/06/28 09:12:10;;;;;;;6.68;2.30;;;22.10;49.20;;;;;;4991758;28;20227;-67
2022/06/28 09:14:36;;;;;;;4.65;2.28;;;22.20;54.00;;;;;;4984772;28;20216;-66
2022/06/28 09:17:21;;;;;;;4.53;2.00;;;22.30;54.70;;;;;;4985192;28;20209;-66
2022/06/28 09:19:49;;;;;;;3.53;1.58;;;22.00;55.60;;;;;;4992762;28;20655;-67
2022/06/28 09:22:31;;;;;;;2.15;1.95;;;22.30;53.10;;;;;;4993061;28;20213;-66
2022/06/28 09:24:59;;;;;;;4.22;1.88;;;22.50;49.60;;;;;;4993243;28;20244;-67
2022/06/28 09:27:33;;;;;;;4.85;1.63;;;22.50;46.90;;;;;;4992546;28;20213;-67
2022/06/28 09:30:00;;;;;;;4.57;2.03;;;23.50;46.10;;;;;;4992610;28;20212;-67
2022/06/28 09:32:30;;;;;;;4.13;1.83;;;23.70;40.90;;;;;;4992090;28;20215;-67
2022/06/28 09:34:59;;;;;;;3.80;1.67;;;23.40;41.70;;;;;;4993312;28;20613;-67
2022/06/28 09:37:35;;;;;;;2.63;1.65;;;24.40;39.70;;;;;;4992879;28;20220;-67
2022/06/28 09:40:19;;;;;;;4.15;1.60;;;24.60;38.90;;;;;;4992338;28;20214;-67
2022/06/28 09:42:48;;;;;;;4.25;1.90;;;25.20;41.60;;;;;;4993100;28;20566;-67
2022/06/28 09:45:16;;;;;;;3.42;1.50;;;24.50;37.10;;;;;;4993048;28;20219;-67
2022/06/28 09:47:47;;;;;;;1.90;1.73;;;25.00;37.10;;;;;;4992972;28;20216;-67
2022/06/28 09:50:20;;;;;;;3.47;2.10;;;25.30;34.30;;;;;;4992100;28;20240;-69
2022/06/28 09:52:47;;;;;;;4.07;1.58;;;25.30;29.20;;;;;;4992711;28;20209;-68
2022/06/28 09:55:15;;;;;;;3.88;1.90;;;24.80;29.50;;;;;;4992956;28;20223;-75
2022/06/28 09:57:45;;;;;;;1.73;1.58;;;24.90;28.20;;;;;;4993111;28;20204;-75
2022/06/28 10:00:14;;;;;;;2.17;1.75;;;24.60;27.90;;;;;;4992424;28;20205;-75
2022/06/28 10:02:41;;;;;;;3.00;1.45;;;24.00;29.10;;;;;;4992803;28;20686;-75
2022/06/28 10:05:11;;;;;;;2.97;2.00;;;24.10;29.00;;;;;;4984200;28;20267;-75
2022/06/28 10:07:38;;;;;;;6.40;2.25;;;24.40;28.30;;;;;;4980666;28;20208;-75
2022/06/28 10:10:07;;;;;;;4.72;1.65;;;25.20;28.30;;;;;;4972102;28;20599;-75
2022/06/28 10:15:20;;;;;;;3.03;1.73;;;25.50;25.40;;;;;;4992634;28;20544;-75
2022/06/28 10:17:55;;;;;;;2.85;1.35;;;25.20;24.70;;;;;;4992958;28;20558;-75
2022/06/28 10:20:27;;;;;;;2.80;1.35;;;25.30;26.90;;;;;;4994833;28;20207;-75
2022/06/28 10:23:21;;;;;;;3.20;1.50;;;25.90;22.10;;;;;;4996675;28;20205;-75
2022/06/28 10:26:02;;;;;;;4.80;1.30;;;26.10;21.70;;;;;;4996422;28;20204;-75
2022/06/28 10:28:37;;;;;;;3.60;1.88;;;25.90;28.10;;;;;;4996484;28;20271;-75
2022/06/28 10:31:32;;;;;;;1.48;1.27;;;25.40;30.30;;;;;;4978131;28;20208;-75
2022/06/28 10:34:00;;;;;;;3.35;1.55;;;25.90;24.60;;;;;;4996331;28;20291;-75
2022/06/28 10:36:32;;;;;;;2.67;1.40;;;26.60;22.70;;;;;;4996267;28;20589;-75
2022/06/28 10:39:26;;;;;;;4.53;1.60;;;26.60;22.90;;;;;;4996047;28;20201;-75
2022/06/28 10:42:05;;;;;;;3.97;1.70;;;26.90;21.10;;;;;;4939914;28;20212;-75
2022/06/28 10:44:44;;;;;;;4.20;1.65;;;27.10;19.70;;;;;;4996171;28;20573;-75
2022/06/28 10:47:14;;;;;;;3.03;1.50;;;25.80;19.90;;;;;;4996257;28;20218;-75
2022/06/28 10:49:57;;;;;;;2.63;1.50;;;26.10;24.40;;;;;;4995662;28;20320;-75
2022/06/28 10:52:26;;;;;;;2.70;1.30;;;26.70;20.00;;;;;;4996090;28;20224;-75
2022/06/28 10:55:19;;;;;;;2.78;1.70;;;27.20;18.30;;;;;;4996042;28;20211;-75
2022/06/28 10:57:46;;;;;;;4.18;2.03;;;27.40;17.10;;;;;;4995735;28;20216;-75
2022/06/28 11:00:22;;;;;;;2.00;1.60;;;26.30;19.40;;;;;;4995162;28;20197;-75
2022/06/28 11:02:59;;;;;;;2.67;1.80;;;26.00;18.60;;;;;;4995324;28;20212;-75
2022/06/28 11:05:46;;;;;;;1.95;1.50;;;25.90;20.10;;;;;;4995095;28;20210;-75
2022/06/28 11:08:34;;;;;;;3.08;2.03;;;25.10;22.10;;;;;;4985539;28;20205;-74
2022/06/28 11:11:02;;;;;;;5.50;1.92;;;23.80;21.20;;;;;;4991983;28;20197;-75
2022/06/28 11:13:29;;;;;;;2.97;1.60;;;24.80;24.40;;;;;;4995117;28;20652;-75
2022/06/28 11:15:56;;;;;;;1.95;1.65;;;24.80;20.00;;;;;;4990445;28;20682;-75
2022/06/28 11:18:24;;;;;;;3.78;1.70;;;24.70;20.80;;;;;;4982192;28;20205;-75
2022/06/28 11:20:52;;;;;;;3.83;1.75;;;24.50;21.00;;;;;;4993850;28;20205;-74
2022/06/28 11:23:25;;;;;;;3.17;1.67;;;24.50;20.60;;;;;;4992978;28;20550;-75
2022/06/28 11:28:53;;;;;;;4.45;1.48;;;25.50;18.30;;;;;;4989760;28;20248;-75
2022/06/28 11:31:20;;;;;;;1.55;1.45;;;26.50;15.10;;;;;;4986707;28;20216;-75
2022/06/28 11:33:48;;;;;;;3.05;1.20;;;27.10;12.00;;;;;;4987442;28;20202;-75
2022/06/28 11:36:22;;;;;;;2.50;1.30;;;26.70;13.40;;;;;;4991263;28;20221;-75
2022/06/28 11:38:50;;;;;;;3.35;1.52;;;26.90;11.60;;;;;;4989914;28;20198;-75
2022/06/28 11:41:28;;;;;;;2.20;1.38;;;26.60;11.00;;;;;;4987213;28;20675;-74
2022/06/28 11:43:57;;;;;;;2.67;1.20;;;26.30;13.20;;;;;;4988150;28;20204;-74
2022/06/28 11:46:26;;;;;;;1.75;1.50;;;25.20;15.90;;;;;;4993113;28;20485;-75
2022/06/28 11:48:53;;;;;;;2.00;1.27;;;26.20;13.70;;;;;;4985510;28;20233;-75
2022/06/28 11:51:26;;;;;;;2.78;1.40;;;26.80;11.30;;;;;;4988272;28;20277;-75
2022/06/28 11:53:54;;;;;;;2.17;1.10;;;27.40;11.80;;;;;;4992568;28;20340;-75
2022/06/28 11:56:21;;;;;;;2.95;1.33;;;27.70;10.60;;;;;;4989409;28;20688;-75
2022/06/28 11:58:48;;;;;;;1.60;1.50;;;27.40;11.20;;;;;;4990053;28;20205;-75
2022/06/28 12:01:17;;;;;;;2.25;1.50;;;27.60;7.30;;;;;;4989517;28;20201;-75
2022/06/28 12:04:02;;;;;;;1.27;1.20;;;27.80;8.60;;;;;;4989814;28;20197;-75
2022/06/28 12:06:30;;;;;;;2.90;1.52;;;27.60;7.10;;;;;;4985903;28;20690;-75
2022/06/28 12:09:00;;;;;;;1.20;1.13;;;27.40;6.50;;;;;;4992634;28;20308;-75
2022/06/28 12:11:39;;;;;;;2.10;1.30;;;26.90;6.00;;;;;;4987214;28;20205;-75
2022/06/28 12:14:08;;;;;;;2.17;1.52;;;26.80;8.30;;;;;;4981988;28;20410;-75
2022/06/28 12:16:36;;;;;;;3.88;1.75;;;27.40;7.70;;;;;;4983147;28;20206;-75
2022/06/28 12:19:04;;;;;;;2.03;1.48;;;27.60;5.60;;;;;;4991953;28;20578;-75
2022/06/28 12:21:31;;;;;;;2.63;1.50;;;26.90;9.50;;;;;;4989138;28;20201;-75
2022/06/28 12:24:01;;;;;;;2.78;1.40;;;26.20;10.40;;;;;;4985885;28;20501;-75
2022/06/28 12:26:42;;;;;;;3.70;1.30;;;26.50;8.70;;;;;;4987587;28;20212;-75
2022/06/28 12:29:10;;;;;;;1.95;1.20;;;27.10;7.30;;;;;;4986524;28;20232;-75
2022/06/28 12:31:40;;;;;;;1.60;1.50;;;27.40;7.20;;;;;;4990235;28;20576;-75
2022/06/28 12:34:08;;;;;;;1.27;1.17;;;27.20;3.70;;;;;;4988131;28;20259;-75
2022/06/28 12:36:35;;;;;;;0.90;0.90;;;27.30;6.80;;;;;;4987987;28;20217;-75
2022/06/28 12:39:04;;;;;;;3.50;1.20;;;27.70;4.90;;;;;;4983795;28;20201;-75
2022/06/28 12:41:31;;;;;;;1.52;0.93;;;27.50;1.50;;;;;;4988967;28;20213;-75
2022/06/28 12:43:58;;;;;;;1.77;1.42;;;27.10;1.00;;;;;;4991821;28;20553;-75
2022/06/28 12:46:25;;;;;;;1.85;1.30;;;26.40;2.00;;;;;;4983764;28;20202;-75
2022/06/28 12:48:52;;;;;;;2.25;1.00;;;27.50;3.30;;;;;;4988832;28;20572;-75
2022/06/28 12:51:19;;;;;;;3.53;1.60;;;26.90;5.40;;;;;;4990699;28;20201;-75
2022/06/28 12:53:46;;;;;;;2.33;1.50;;;26.40;5.70;;;;;;4989010;28;20201;-75
2022/06/28 12:56:16;;;;;;;2.90;1.27;;;26.50;6.20;;;;;;4991274;28;20209;-75
2022/06/28 12:58:44;;;;;;;3.20;1.73;;;26.00;11.70;;;;;;4990129;28;20652;-69
2022/06/28 13:01:11;;;;;;;3.10;1.40;;;25.60;11.00;;;;;;4988018;28;20205;-69
2022/06/28 13:03:38;;;;;;;2.08;1.65;;;25.40;13.10;;;;;;4989636;28;20207;-69
2022/06/28 13:06:05;;;;;;;1.98;1.75;;;25.90;10.80;;;;;;4987580;28;20251;-69